createdAt,value
2023-05-15T00:03:06.743Z,12.36
2023-05-15T00:08:09.392Z,12.28
2023-05-15T00:13:11.059Z,12.23
2023-05-15T00:18:12.802Z,12.18
2023-05-15T00:23:14.567Z,12.10
2023-05-15T00:28:16.296Z,12.04
2023-05-15T00:33:18.090Z,11.97
2023-05-15T00:38:19.752Z,11.91
2023-05-15T00:43:21.997Z,11.84
2023-05-15T00:48:25.387Z,11.79
2023-05-15T00:53:28.404Z,11.78
2023-05-15T00:58:32.089Z,11.79
2023-05-15T01:03:33.852Z,11.78
2023-05-15T01:08:49.746Z,11.75
2023-05-15T01:13:51.405Z,11.70
2023-05-15T01:18:53.307Z,11.69
2023-05-15T01:24:12.403Z,11.70
2023-05-15T01:29:26.710Z,11.67
2023-05-15T01:34:34.337Z,11.63
2023-05-15T01:39:38.981Z,11.66
2023-05-15T01:44:46.286Z,11.68
2023-05-15T01:49:51.070Z,11.71
2023-05-15T01:54:54.773Z,11.70
2023-05-15T01:59:58.737Z,11.72
2023-05-15T02:05:01.526Z,11.78
2023-05-15T02:10:04.732Z,11.85
2023-05-15T02:15:10.285Z,11.93
2023-05-15T02:20:12.307Z,11.99
2023-05-15T02:25:14.150Z,11.96
2023-05-15T02:30:57.451Z,11.97
2023-05-15T02:36:04.690Z,11.99
2023-05-15T02:41:07.870Z,11.95
2023-05-15T02:46:12.131Z,11.96
2023-05-15T02:51:14.310Z,11.92
2023-05-15T02:56:16.054Z,11.93
2023-05-15T03:01:17.820Z,11.95
2023-05-15T03:06:19.548Z,12.04
2023-05-15T03:11:21.451Z,12.10
2023-05-15T03:16:23.274Z,12.06
2023-05-15T03:21:25.028Z,11.99
2023-05-15T03:26:27.194Z,11.98
2023-05-15T03:31:29.021Z,12.07
2023-05-15T03:36:31.598Z,12.17
2023-05-15T03:41:33.254Z,12.22
2023-05-15T03:46:35.578Z,12.19
2023-05-15T03:51:37.528Z,12.18
2023-05-15T03:56:39.258Z,12.19
2023-05-15T04:01:54.812Z,12.21
2023-05-15T04:07:07.521Z,12.23
2023-05-15T04:12:09.305Z,12.29
2023-05-15T04:17:11.015Z,12.28
2023-05-15T04:22:13.099Z,12.27
2023-05-15T04:27:14.794Z,12.32
2023-05-15T04:32:16.526Z,12.40
2023-05-15T04:37:18.617Z,12.45
2023-05-15T04:42:20.798Z,12.51
2023-05-15T04:47:22.556Z,12.54
2023-05-15T04:52:24.655Z,12.61
2023-05-15T04:57:26.734Z,12.71
2023-05-15T05:02:28.512Z,12.82
2023-05-15T05:07:30.614Z,12.92
2023-05-15T05:12:32.365Z,13.06
2023-05-15T05:17:34.187Z,13.14
2023-05-15T05:22:35.971Z,13.16
2023-05-15T05:27:37.688Z,13.21
2023-05-15T05:32:39.345Z,13.33
2023-05-15T05:37:41.540Z,13.49
2023-05-15T05:42:43.655Z,13.68
2023-05-15T05:47:45.627Z,13.76
2023-05-15T05:52:47.345Z,13.82
2023-05-15T05:57:49.089Z,13.95
2023-05-15T06:02:56.618Z,14.11
2023-05-15T06:07:59.896Z,14.21
2023-05-15T06:13:01.682Z,14.36
2023-05-15T06:18:03.623Z,14.45
2023-05-15T06:23:05.582Z,14.48
2023-05-15T06:28:07.385Z,14.62
2023-05-15T06:33:09.152Z,14.75
2023-05-15T06:38:10.972Z,14.82
2023-05-15T06:43:12.769Z,14.72
2023-05-15T06:48:14.508Z,14.73
2023-05-15T06:53:17.733Z,14.84
2023-05-15T06:58:19.434Z,14.97
2023-05-15T07:03:21.179Z,15.01
2023-05-15T07:08:22.820Z,14.99
2023-05-15T07:13:34.806Z,14.95
2023-05-15T07:18:36.723Z,14.99
2023-05-15T07:23:38.462Z,15.07
2023-05-15T07:28:40.142Z,15.15
2023-05-15T07:33:41.763Z,15.24
2023-05-15T07:38:43.443Z,15.34
2023-05-15T07:43:45.097Z,15.39
2023-05-15T07:48:46.906Z,15.40
2023-05-15T07:53:48.570Z,15.35
2023-05-15T07:58:50.299Z,15.34
2023-05-15T08:03:52.163Z,15.35
2023-05-15T08:08:53.933Z,15.43
2023-05-15T08:13:55.650Z,15.55
2023-05-15T08:19:01.645Z,15.58
2023-05-15T08:24:03.808Z,15.59
2023-05-15T08:29:05.553Z,15.64
2023-05-15T08:34:10.789Z,15.62
2023-05-15T08:39:12.988Z,15.66
2023-05-15T08:44:14.773Z,15.73
2023-05-15T08:49:42.387Z,15.73
2023-05-15T08:54:45.468Z,15.68
2023-05-15T08:59:51.368Z,15.64
2023-05-15T09:04:53.221Z,15.70
2023-05-15T09:09:56.996Z,15.83
2023-05-15T09:15:09.790Z,16.03
2023-05-15T09:20:34.644Z,16.25
2023-05-15T09:25:41.628Z,16.44
2023-05-15T09:30:43.408Z,16.46
2023-05-15T09:35:46.181Z,16.42
2023-05-15T09:40:47.874Z,16.42
2023-05-15T09:45:49.669Z,16.37
2023-05-15T09:50:51.995Z,16.57
2023-05-15T09:55:54.588Z,16.91
2023-05-15T10:00:59.618Z,17.25
2023-05-15T10:06:03.411Z,17.70
2023-05-15T10:11:06.543Z,18.31
2023-05-15T10:16:08.414Z,18.94
2023-05-15T10:21:10.411Z,19.41
2023-05-15T10:26:18.694Z,19.46
2023-05-15T10:31:21.912Z,19.09
2023-05-15T10:36:24.790Z,18.69
2023-05-15T10:41:27.318Z,18.88
2023-05-15T10:46:31.708Z,19.44
2023-05-15T10:51:36.098Z,19.69
2023-05-15T10:56:39.472Z,19.86
2023-05-15T11:01:42.120Z,20.13
2023-05-15T11:06:46.596Z,20.39
2023-05-15T11:11:51.320Z,20.47
2023-05-15T11:16:53.637Z,20.62
2023-05-15T11:22:18.800Z,20.99
2023-05-15T11:27:26.082Z,21.10
2023-05-15T11:32:33.407Z,20.82
2023-05-15T11:37:38.790Z,21.02
2023-05-15T11:42:41.752Z,21.36
2023-05-15T11:47:45.430Z,21.47
2023-05-15T11:52:49.721Z,21.10
2023-05-15T11:57:51.629Z,20.87
2023-05-15T12:02:53.726Z,21.11
2023-05-15T12:07:55.604Z,21.60
2023-05-15T12:12:58.849Z,21.82
2023-05-15T12:18:03.579Z,21.95
2023-05-15T12:23:08.094Z,21.96
2023-05-15T12:28:11.766Z,21.93
2023-05-15T12:33:13.957Z,21.94
2023-05-15T12:38:18.678Z,21.85
2023-05-15T12:43:23.651Z,21.96
2023-05-15T12:48:32.703Z,21.98
2023-05-15T12:53:34.923Z,21.67
2023-05-15T12:58:37.399Z,21.48
2023-05-15T13:03:39.176Z,21.30
2023-05-15T13:08:41.982Z,21.23
2023-05-15T13:13:45.359Z,21.32
2023-05-15T13:18:47.179Z,21.43
2023-05-15T13:23:49.351Z,21.67
2023-05-15T13:28:51.056Z,21.70
2023-05-15T13:33:52.801Z,21.58
2023-05-15T13:38:54.511Z,21.40
2023-05-15T13:43:56.178Z,21.09
2023-05-15T13:48:57.793Z,20.86
2023-05-15T13:53:59.467Z,20.89
2023-05-15T13:59:01.191Z,20.39
2023-05-15T14:04:03.859Z,20.09
2023-05-15T14:09:07.424Z,20.24
2023-05-15T14:14:09.048Z,20.32
2023-05-15T14:19:10.769Z,20.27
2023-05-15T14:24:12.494Z,20.09
2023-05-15T14:29:14.458Z,19.79
2023-05-15T14:34:17.004Z,19.52
2023-05-15T14:39:18.971Z,19.21
2023-05-15T14:44:20.808Z,18.46
2023-05-15T14:49:22.481Z,17.66
2023-05-15T14:54:24.172Z,17.46
2023-05-15T14:59:27.680Z,18.01
2023-05-15T15:04:34.184Z,18.36
2023-05-15T15:09:35.956Z,18.18
2023-05-15T15:14:37.615Z,18.06
2023-05-15T15:19:39.426Z,18.33
2023-05-15T15:24:41.047Z,18.35
2023-05-15T15:29:42.697Z,18.42
2023-05-15T15:34:44.393Z,18.06
2023-05-15T15:39:46.074Z,17.60
2023-05-15T15:44:47.895Z,17.20
2023-05-15T15:49:53.251Z,16.97
2023-05-15T15:54:54.987Z,16.72
2023-05-15T15:59:56.629Z,16.45
2023-05-15T16:04:58.539Z,16.26
2023-05-15T16:10:11.883Z,16.31
2023-05-15T16:15:23.102Z,16.84
2023-05-15T16:20:26.219Z,17.49
2023-05-15T16:25:28.122Z,17.69
2023-05-15T16:30:44.325Z,17.90
2023-05-15T16:35:51.904Z,18.16
2023-05-15T16:40:53.559Z,18.21
2023-05-15T16:45:55.390Z,18.15
2023-05-15T16:50:57.178Z,18.15
2023-05-15T16:55:58.958Z,18.33
2023-05-15T17:01:01.197Z,18.08
2023-05-15T17:06:02.906Z,17.68
2023-05-15T17:11:05.466Z,17.16
2023-05-15T17:16:08.749Z,16.72
2023-05-15T17:21:11.054Z,16.26
2023-05-15T17:26:12.667Z,15.75
2023-05-15T17:31:14.319Z,15.46
2023-05-15T17:36:15.945Z,15.25
2023-05-15T17:41:18.347Z,15.07
2023-05-15T17:46:20.402Z,14.85
2023-05-15T17:51:22.081Z,14.66
2023-05-15T17:56:23.759Z,14.48
2023-05-15T18:01:25.558Z,14.32
2023-05-15T18:06:28.124Z,14.18
2023-05-15T18:11:29.798Z,14.10
2023-05-15T18:16:32.722Z,14.06
2023-05-15T18:21:37.018Z,14.05
2023-05-15T18:26:39.663Z,13.97
2023-05-15T18:31:41.373Z,13.92
2023-05-15T18:36:43.052Z,13.88
2023-05-15T18:41:44.711Z,13.85
2023-05-15T18:46:46.359Z,13.81
2023-05-15T18:51:48.159Z,13.70
2023-05-15T18:56:49.889Z,13.58
2023-05-15T19:01:53.696Z,13.47
2023-05-15T19:06:55.671Z,13.34
2023-05-15T19:12:03.490Z,13.15
2023-05-15T19:17:05.471Z,13.01
2023-05-15T19:22:07.371Z,12.87
2023-05-15T19:27:09.125Z,12.74
2023-05-15T19:32:10.936Z,12.68
2023-05-15T19:37:12.631Z,12.72
2023-05-15T19:42:14.277Z,12.83
2023-05-15T19:47:15.953Z,12.92
2023-05-15T19:52:19.283Z,12.88
2023-05-15T19:57:20.985Z,12.69
2023-05-15T20:02:23.182Z,12.51
2023-05-15T20:07:25.122Z,12.37
2023-05-15T20:12:26.784Z,12.21
2023-05-15T20:17:28.482Z,12.12
2023-05-15T20:22:30.581Z,11.94
2023-05-15T20:27:32.657Z,11.75
2023-05-15T20:32:34.441Z,11.60
2023-05-15T20:37:36.508Z,11.53
2023-05-15T20:42:38.750Z,11.54
2023-05-15T20:47:40.969Z,11.50
2023-05-15T20:52:42.821Z,11.44
2023-05-15T20:57:46.322Z,11.37
2023-05-15T21:02:48.075Z,11.33
2023-05-15T21:07:50.299Z,11.28
2023-05-15T21:12:52.897Z,11.22
2023-05-15T21:17:54.577Z,11.14
2023-05-15T21:22:56.228Z,11.06
2023-05-15T21:27:58.982Z,11.01
2023-05-15T21:33:01.864Z,11.01
2023-05-15T21:38:03.669Z,10.99
2023-05-15T21:43:06.129Z,10.93
2023-05-15T21:48:09.922Z,10.84
2023-05-15T21:53:11.665Z,10.76
2023-05-15T21:58:13.308Z,10.69
2023-05-15T22:03:15.051Z,10.63
2023-05-15T22:08:17.022Z,10.54
2023-05-15T22:13:18.684Z,10.44
2023-05-15T22:18:21.282Z,10.39
2023-05-15T22:23:22.977Z,10.38
2023-05-15T22:28:24.875Z,10.37
2023-05-15T22:33:27.152Z,10.33
2023-05-15T22:38:29.341Z,10.27
2023-05-15T22:43:31.498Z,10.22
2023-05-15T22:48:34.032Z,10.18
2023-05-15T22:53:35.787Z,10.16
2023-05-15T22:58:37.481Z,10.11
2023-05-15T23:03:39.184Z,10.04
2023-05-15T23:08:41.826Z,9.99
2023-05-15T23:13:50.777Z,9.95
2023-05-15T23:18:52.979Z,9.96
2023-05-15T23:23:55.050Z,9.92
2023-05-15T23:28:56.722Z,9.81
2023-05-15T23:33:58.351Z,9.73
2023-05-15T23:39:00.558Z,9.72
2023-05-15T23:44:02.962Z,9.77
2023-05-15T23:49:06.633Z,9.75
2023-05-15T23:54:08.646Z,9.67
2023-05-15T23:59:10.468Z,9.58
